New Johannesburg, Wisconsin
Current Conditions -  °F | °C
As of 6:55 PM on Saturday 22 Nov 2014 (Local Time) from KRNH Reporting Station
Haze Haze  
Wind Chill: 28°   Ceiling: 400
Heat Index: 35°   Visibility: 2.5mi
Dew Point: 35°   Wind: 8mph
Humidity: 100%   Direction: 150°SSE
Pressure: 29.64"   Gusts: NA
Location:  45.1804°N, 92.551°W
Report Text: KRNH 230055Z AUTO 15007KT 2 1/2SM BR OVC004 02/02 A2964 RMK AO2 T00160016
Loading
Personal Weather Stations






























Interactive Weather Map New forecast layout! Learn more

10-Day Weather Forecast

Advertisements
Track Severe Weather on mobile